sensor_id;sensor_type;location;lat;lon;timestamp;temperature;humidity
45843;DHT22;31563;51.744;8.252;2023-12-22T00:00:34;15.50;69.40
45843;DHT22;31563;51.744;8.252;2023-12-22T00:03:03;15.50;69.40
45843;DHT22;31563;51.744;8.252;2023-12-22T00:05:32;15.50;69.40
45843;DHT22;31563;51.744;8.252;2023-12-22T00:08:00;15.50;69.30
45843;DHT22;31563;51.744;8.252;2023-12-22T00:10:28;15.50;69.30
45843;DHT22;31563;51.744;8.252;2023-12-22T00:12:56;15.50;69.30
45843;DHT22;31563;51.744;8.252;2023-12-22T00:15:23;15.50;69.30
45843;DHT22;31563;51.744;8.252;2023-12-22T00:17:51;15.50;69.20
45843;DHT22;31563;51.744;8.252;2023-12-22T00:20:19;15.50;69.20
45843;DHT22;31563;51.744;8.252;2023-12-22T00:22:48;15.50;69.10
45843;DHT22;31563;51.744;8.252;2023-12-22T00:25:17;15.40;64.30
45843;DHT22;31563;51.744;8.252;2023-12-22T00:27:44;15.40;69.00
45843;DHT22;31563;51.744;8.252;2023-12-22T00:30:13;15.50;66.30
45843;DHT22;31563;51.744;8.252;2023-12-22T00:32:41;15.40;67.50
45843;DHT22;31563;51.744;8.252;2023-12-22T00:35:09;15.40;68.00
45843;DHT22;31563;51.744;8.252;2023-12-22T00:37:37;15.30;68.10
45843;DHT22;31563;51.744;8.252;2023-12-22T00:40:07;15.30;68.20
45843;DHT22;31563;51.744;8.252;2023-12-22T00:42:36;15.20;68.30
45843;DHT22;31563;51.744;8.252;2023-12-22T00:45:04;15.20;68.30
45843;DHT22;31563;51.744;8.252;2023-12-22T00:47:32;15.20;68.30
45843;DHT22;31563;51.744;8.252;2023-12-22T00:50:02;15.20;68.30
45843;DHT22;31563;51.744;8.252;2023-12-22T00:52:31;15.20;68.30
45843;DHT22;31563;51.744;8.252;2023-12-22T00:54:59;15.20;68.40
45843;DHT22;31563;51.744;8.252;2023-12-22T00:57:28;15.30;68.40
45843;DHT22;31563;51.744;8.252;2023-12-22T00:59:56;15.20;68.30
45843;DHT22;31563;51.744;8.252;2023-12-22T01:02:24;15.30;68.20
45843;DHT22;31563;51.744;8.252;2023-12-22T01:04:52;15.20;68.20
45843;DHT22;31563;51.744;8.252;2023-12-22T01:07:20;15.20;68.10
45843;DHT22;31563;51.744;8.252;2023-12-22T01:09:48;15.20;68.10
45843;DHT22;31563;51.744;8.252;2023-12-22T01:12:16;15.20;68.20
45843;DHT22;31563;51.744;8.252;2023-12-22T01:14:45;15.20;68.10
45843;DHT22;31563;51.744;8.252;2023-12-22T01:17:15;15.30;68.10
45843;DHT22;31563;51.744;8.252;2023-12-22T01:19:43;15.20;68.10
45843;DHT22;31563;51.744;8.252;2023-12-22T01:22:12;15.20;68.50
45843;DHT22;31563;51.744;8.252;2023-12-22T01:24:40;15.20;68.00
45843;DHT22;31563;51.744;8.252;2023-12-22T01:27:09;15.20;68.00
45843;DHT22;31563;51.744;8.252;2023-12-22T01:29:37;15.20;67.90
45843;DHT22;31563;51.744;8.252;2023-12-22T01:32:07;15.20;68.00
45843;DHT22;31563;51.744;8.252;2023-12-22T01:34:35;15.20;68.00
45843;DHT22;31563;51.744;8.252;2023-12-22T01:37:03;15.20;68.10
45843;DHT22;31563;51.744;8.252;2023-12-22T01:39:31;15.10;68.10
45843;DHT22;31563;51.744;8.252;2023-12-22T01:41:58;15.10;68.10
45843;DHT22;31563;51.744;8.252;2023-12-22T01:44:26;15.10;68.10
45843;DHT22;31563;51.744;8.252;2023-12-22T01:46:54;15.00;68.10
45843;DHT22;31563;51.744;8.252;2023-12-22T01:49:24;15.10;68.10
45843;DHT22;31563;51.744;8.252;2023-12-22T01:51:53;15.00;68.20
45843;DHT22;31563;51.744;8.252;2023-12-22T01:54:21;15.00;68.20
45843;DHT22;31563;51.744;8.252;2023-12-22T01:56:48;15.00;68.20
45843;DHT22;31563;51.744;8.252;2023-12-22T01:59:16;15.00;68.20
45843;DHT22;31563;51.744;8.252;2023-12-22T02:01:44;15.00;68.10
45843;DHT22;31563;51.744;8.252;2023-12-22T02:04:14;15.00;68.10
45843;DHT22;31563;51.744;8.252;2023-12-22T02:06:44;15.00;68.00
45843;DHT22;31563;51.744;8.252;2023-12-22T02:09:11;15.00;68.00
45843;DHT22;31563;51.744;8.252;2023-12-22T02:11:40;15.00;68.10
45843;DHT22;31563;51.744;8.252;2023-12-22T02:14:08;15.00;68.00
45843;DHT22;31563;51.744;8.252;2023-12-22T02:16:40;15.00;68.00
45843;DHT22;31563;51.744;8.252;2023-12-22T02:19:21;14.90;67.90
45843;DHT22;31563;51.744;8.252;2023-12-22T02:22:04;15.00;68.00
45843;DHT22;31563;51.744;8.252;2023-12-22T02:24:37;15.30;78.70
45843;DHT22;31563;51.744;8.252;2023-12-22T02:27:07;15.60;77.00
45843;DHT22;31563;51.744;8.252;2023-12-22T02:29:43;15.60;73.40
45843;DHT22;31563;51.744;8.252;2023-12-22T02:32:19;15.60;72.50
45843;DHT22;31563;51.744;8.252;2023-12-22T02:34:51;15.40;73.20
45843;DHT22;31563;51.744;8.252;2023-12-22T02:37:20;15.30;73.70
45843;DHT22;31563;51.744;8.252;2023-12-22T02:39:51;15.30;74.30
45843;DHT22;31563;51.744;8.252;2023-12-22T02:42:20;15.20;73.60
45843;DHT22;31563;51.744;8.252;2023-12-22T02:44:51;15.20;73.60
45843;DHT22;31563;51.744;8.252;2023-12-22T02:47:19;15.10;73.60
45843;DHT22;31563;51.744;8.252;2023-12-22T02:49:47;15.10;73.40
45843;DHT22;31563;51.744;8.252;2023-12-22T02:52:14;15.00;73.50
45843;DHT22;31563;51.744;8.252;2023-12-22T02:54:42;15.00;73.40
45843;DHT22;31563;51.744;8.252;2023-12-22T02:57:11;15.00;73.40
45843;DHT22;31563;51.744;8.252;2023-12-22T02:59:39;15.00;73.20
45843;DHT22;31563;51.744;8.252;2023-12-22T03:02:07;15.00;73.00
45843;DHT22;31563;51.744;8.252;2023-12-22T03:04:35;15.00;72.90
45843;DHT22;31563;51.744;8.252;2023-12-22T03:07:03;15.00;72.90
45843;DHT22;31563;51.744;8.252;2023-12-22T03:09:31;15.00;72.70
45843;DHT22;31563;51.744;8.252;2023-12-22T03:12:05;15.00;72.60
45843;DHT22;31563;51.744;8.252;2023-12-22T03:14:35;15.00;72.50
45843;DHT22;31563;51.744;8.252;2023-12-22T03:17:05;15.00;72.40
45843;DHT22;31563;51.744;8.252;2023-12-22T03:19:33;15.00;72.20
45843;DHT22;31563;51.744;8.252;2023-12-22T03:22:02;15.00;72.10
45843;DHT22;31563;51.744;8.252;2023-12-22T03:24:30;15.00;71.90
45843;DHT22;31563;51.744;8.252;2023-12-22T03:26:57;15.00;71.90
45843;DHT22;31563;51.744;8.252;2023-12-22T03:29:25;15.00;71.80
45843;DHT22;31563;51.744;8.252;2023-12-22T03:31:54;15.00;71.70
45843;DHT22;31563;51.744;8.252;2023-12-22T03:34:22;15.00;71.70
45843;DHT22;31563;51.744;8.252;2023-12-22T03:36:50;15.00;71.50
45843;DHT22;31563;51.744;8.252;2023-12-22T03:39:18;14.90;71.40
45843;DHT22;31563;51.744;8.252;2023-12-22T03:41:46;14.90;71.50
45843;DHT22;31563;51.744;8.252;2023-12-22T03:44:14;14.90;71.30
45843;DHT22;31563;51.744;8.252;2023-12-22T03:46:41;14.80;71.20
45843;DHT22;31563;51.744;8.252;2023-12-22T03:49:11;14.80;71.10
45843;DHT22;31563;51.744;8.252;2023-12-22T03:51:39;14.80;71.20
45843;DHT22;31563;51.744;8.252;2023-12-22T03:54:08;14.80;71.20
45843;DHT22;31563;51.744;8.252;2023-12-22T03:56:36;14.80;71.20
45843;DHT22;31563;51.744;8.252;2023-12-22T03:59:04;14.80;71.10
45843;DHT22;31563;51.744;8.252;2023-12-22T04:01:32;14.80;71.00
45843;DHT22;31563;51.744;8.252;2023-12-22T04:04:00;14.80;70.90
45843;DHT22;31563;51.744;8.252;2023-12-22T04:06:29;14.80;70.80
45843;DHT22;31563;51.744;8.252;2023-12-22T04:08:57;14.80;70.70
45843;DHT22;31563;51.744;8.252;2023-12-22T04:11:25;14.80;70.70
45843;DHT22;31563;51.744;8.252;2023-12-22T04:13:53;14.80;70.50
45843;DHT22;31563;51.744;8.252;2023-12-22T04:16:21;14.80;70.60
45843;DHT22;31563;51.744;8.252;2023-12-22T04:18:48;14.80;70.50
45843;DHT22;31563;51.744;8.252;2023-12-22T04:21:16;14.80;70.30
45843;DHT22;31563;51.744;8.252;2023-12-22T04:23:46;14.80;70.30
45843;DHT22;31563;51.744;8.252;2023-12-22T04:26:13;14.80;70.20
45843;DHT22;31563;51.744;8.252;2023-12-22T04:28:41;14.80;70.10
45843;DHT22;31563;51.744;8.252;2023-12-22T04:31:09;14.80;70.10
45843;DHT22;31563;51.744;8.252;2023-12-22T04:33:37;14.70;70.10
45843;DHT22;31563;51.744;8.252;2023-12-22T04:36:06;14.70;70.10
45843;DHT22;31563;51.744;8.252;2023-12-22T04:38:34;14.70;70.00
45843;DHT22;31563;51.744;8.252;2023-12-22T04:41:03;14.70;69.90
45843;DHT22;31563;51.744;8.252;2023-12-22T04:43:31;14.60;69.90
45843;DHT22;31563;51.744;8.252;2023-12-22T04:45:59;14.70;69.90
45843;DHT22;31563;51.744;8.252;2023-12-22T04:48:27;14.70;70.00
45843;DHT22;31563;51.744;8.252;2023-12-22T04:50:56;14.70;70.00
45843;DHT22;31563;51.744;8.252;2023-12-22T04:53:24;14.80;69.90
45843;DHT22;31563;51.744;8.252;2023-12-22T04:55:52;14.80;69.70
45843;DHT22;31563;51.744;8.252;2023-12-22T04:58:21;15.00;69.50
45843;DHT22;31563;51.744;8.252;2023-12-22T05:00:49;15.10;69.00
45843;DHT22;31563;51.744;8.252;2023-12-22T05:03:16;15.10;69.00
45843;DHT22;31563;51.744;8.252;2023-12-22T05:05:44;15.10;68.70
45843;DHT22;31563;51.744;8.252;2023-12-22T05:08:12;15.20;68.60
45843;DHT22;31563;51.744;8.252;2023-12-22T05:10:41;15.30;68.40
45843;DHT22;31563;51.744;8.252;2023-12-22T05:13:09;15.30;68.00
45843;DHT22;31563;51.744;8.252;2023-12-22T05:15:38;15.30;67.90
45843;DHT22;31563;51.744;8.252;2023-12-22T05:18:06;15.40;65.70
45843;DHT22;31563;51.744;8.252;2023-12-22T05:20:34;15.30;67.20
45843;DHT22;31563;51.744;8.252;2023-12-22T05:23:02;15.40;67.70
45843;DHT22;31563;51.744;8.252;2023-12-22T05:25:31;15.40;67.30
45843;DHT22;31563;51.744;8.252;2023-12-22T05:27:59;15.40;67.50
45843;DHT22;31563;51.744;8.252;2023-12-22T05:30:27;15.40;67.20
45843;DHT22;31563;51.744;8.252;2023-12-22T05:32:56;15.40;67.20
45843;DHT22;31563;51.744;8.252;2023-12-22T05:35:24;15.40;67.20
45843;DHT22;31563;51.744;8.252;2023-12-22T05:37:52;15.50;67.10
45843;DHT22;31563;51.744;8.252;2023-12-22T05:40:20;15.50;67.00
45843;DHT22;31563;51.744;8.252;2023-12-22T05:42:48;15.50;66.70
45843;DHT22;31563;51.744;8.252;2023-12-22T05:45:16;15.50;66.70
45843;DHT22;31563;51.744;8.252;2023-12-22T05:47:45;15.30;61.70
45843;DHT22;31563;51.744;8.252;2023-12-22T05:50:14;15.10;61.10
45843;DHT22;31563;51.744;8.252;2023-12-22T05:52:43;15.20;62.90
45843;DHT22;31563;51.744;8.252;2023-12-22T05:55:11;15.20;63.30
45843;DHT22;31563;51.744;8.252;2023-12-22T05:57:39;15.30;63.10
45843;DHT22;31563;51.744;8.252;2023-12-22T06:00:07;15.40;63.20
45843;DHT22;31563;51.744;8.252;2023-12-22T06:02:38;15.40;62.90
45843;DHT22;31563;51.744;8.252;2023-12-22T06:05:06;15.40;62.90
45843;DHT22;31563;51.744;8.252;2023-12-22T06:07:35;15.40;63.10
45843;DHT22;31563;51.744;8.252;2023-12-22T06:10:03;15.50;62.90
45843;DHT22;31563;51.744;8.252;2023-12-22T06:12:31;15.50;62.90
45843;DHT22;31563;51.744;8.252;2023-12-22T06:14:59;15.50;62.90
45843;DHT22;31563;51.744;8.252;2023-12-22T06:17:26;15.50;62.90
45843;DHT22;31563;51.744;8.252;2023-12-22T06:19:54;15.60;63.00
45843;DHT22;31563;51.744;8.252;2023-12-22T06:22:22;15.60;63.10
45843;DHT22;31563;51.744;8.252;2023-12-22T06:24:52;15.60;63.50
45843;DHT22;31563;51.744;8.252;2023-12-22T06:27:20;15.60;64.00
45843;DHT22;31563;51.744;8.252;2023-12-22T06:29:48;15.60;64.40
45843;DHT22;31563;51.744;8.252;2023-12-22T06:32:16;15.70;64.90
45843;DHT22;31563;51.744;8.252;2023-12-22T06:34:44;15.70;65.10
45843;DHT22;31563;51.744;8.252;2023-12-22T06:37:12;15.80;65.50
45843;DHT22;31563;51.744;8.252;2023-12-22T06:39:40;15.80;65.40
45843;DHT22;31563;51.744;8.252;2023-12-22T06:42:09;15.80;65.70
45843;DHT22;31563;51.744;8.252;2023-12-22T06:44:41;15.80;65.50
45843;DHT22;31563;51.744;8.252;2023-12-22T06:47:09;15.80;65.50
45843;DHT22;31563;51.744;8.252;2023-12-22T06:49:38;15.90;65.60
45843;DHT22;31563;51.744;8.252;2023-12-22T06:52:06;15.90;65.60
45843;DHT22;31563;51.744;8.252;2023-12-22T06:54:34;15.90;65.50
45843;DHT22;31563;51.744;8.252;2023-12-22T06:57:02;15.90;65.50
45843;DHT22;31563;51.744;8.252;2023-12-22T06:59:32;15.90;65.20
45843;DHT22;31563;51.744;8.252;2023-12-22T07:02:00;15.90;65.30
45843;DHT22;31563;51.744;8.252;2023-12-22T07:05:02;15.90;65.00
45843;DHT22;31563;51.744;8.252;2023-12-22T07:07:34;15.90;65.00
45843;DHT22;31563;51.744;8.252;2023-12-22T07:10:03;15.90;64.70
45843;DHT22;31563;51.744;8.252;2023-12-22T07:12:31;16.20;65.30
45843;DHT22;31563;51.744;8.252;2023-12-22T07:15:00;15.90;61.30
45843;DHT22;31563;51.744;8.252;2023-12-22T07:17:28;16.00;63.40
45843;DHT22;31563;51.744;8.252;2023-12-22T07:19:56;16.00;62.00
45843;DHT22;31563;51.744;8.252;2023-12-22T07:22:25;16.00;62.50
45843;DHT22;31563;51.744;8.252;2023-12-22T07:24:53;15.90;59.40
45843;DHT22;31563;51.744;8.252;2023-12-22T07:27:23;15.70;58.10
45843;DHT22;31563;51.744;8.252;2023-12-22T07:29:52;15.60;57.10
45843;DHT22;31563;51.744;8.252;2023-12-22T07:32:22;15.50;55.30
45843;DHT22;31563;51.744;8.252;2023-12-22T07:34:50;15.40;56.00
45843;DHT22;31563;51.744;8.252;2023-12-22T07:37:18;15.40;55.20
45843;DHT22;31563;51.744;8.252;2023-12-22T07:39:46;15.40;55.60
45843;DHT22;31563;51.744;8.252;2023-12-22T07:42:14;15.40;54.60
45843;DHT22;31563;51.744;8.252;2023-12-22T07:44:43;15.30;55.30
45843;DHT22;31563;51.744;8.252;2023-12-22T07:47:10;15.50;57.80
45843;DHT22;31563;51.744;8.252;2023-12-22T07:49:40;16.00;57.10
45843;DHT22;31563;51.744;8.252;2023-12-22T07:52:08;16.40;56.60
45843;DHT22;31563;51.744;8.252;2023-12-22T07:54:36;16.60;56.40
45843;DHT22;31563;51.744;8.252;2023-12-22T07:57:05;16.80;56.10
45843;DHT22;31563;51.744;8.252;2023-12-22T07:59:33;17.00;56.30
45843;DHT22;31563;51.744;8.252;2023-12-22T08:02:01;16.90;57.00
45843;DHT22;31563;51.744;8.252;2023-12-22T08:04:29;16.90;57.70
45843;DHT22;31563;51.744;8.252;2023-12-22T08:06:59;17.00;57.90
45843;DHT22;31563;51.744;8.252;2023-12-22T08:09:27;17.10;58.00
45843;DHT22;31563;51.744;8.252;2023-12-22T08:11:55;17.10;58.10
45843;DHT22;31563;51.744;8.252;2023-12-22T08:14:23;17.20;58.30
45843;DHT22;31563;51.744;8.252;2023-12-22T08:16:51;17.30;58.30
45843;DHT22;31563;51.744;8.252;2023-12-22T08:19:19;17.40;58.30
45843;DHT22;31563;51.744;8.252;2023-12-22T08:21:48;17.40;58.40
45843;DHT22;31563;51.744;8.252;2023-12-22T08:24:20;17.50;58.50
45843;DHT22;31563;51.744;8.252;2023-12-22T08:26:49;17.50;58.70
45843;DHT22;31563;51.744;8.252;2023-12-22T08:29:17;17.50;58.80
45843;DHT22;31563;51.744;8.252;2023-12-22T08:31:46;17.50;58.70
45843;DHT22;31563;51.744;8.252;2023-12-22T08:34:15;17.60;58.80
45843;DHT22;31563;51.744;8.252;2023-12-22T08:36:42;17.50;59.00
45843;DHT22;31563;51.744;8.252;2023-12-22T08:39:11;17.50;59.40
45843;DHT22;31563;51.744;8.252;2023-12-22T08:41:41;17.60;59.70
45843;DHT22;31563;51.744;8.252;2023-12-22T08:44:09;17.60;59.80
45843;DHT22;31563;51.744;8.252;2023-12-22T08:46:37;17.60;59.50
45843;DHT22;31563;51.744;8.252;2023-12-22T08:49:05;17.70;59.30
45843;DHT22;31563;51.744;8.252;2023-12-22T08:51:34;17.70;59.40
45843;DHT22;31563;51.744;8.252;2023-12-22T08:54:01;17.70;59.60
45843;DHT22;31563;51.744;8.252;2023-12-22T08:56:30;17.80;60.10
45843;DHT22;31563;51.744;8.252;2023-12-22T08:58:59;17.90;60.40
45843;DHT22;31563;51.744;8.252;2023-12-22T09:01:27;17.90;60.40
45843;DHT22;31563;51.744;8.252;2023-12-22T09:03:55;18.00;60.70
45843;DHT22;31563;51.744;8.252;2023-12-22T09:06:24;18.00;60.50
45843;DHT22;31563;51.744;8.252;2023-12-22T09:08:52;18.10;60.50
45843;DHT22;31563;51.744;8.252;2023-12-22T09:11:21;18.20;60.50
45843;DHT22;31563;51.744;8.252;2023-12-22T09:13:49;18.20;60.20
45843;DHT22;31563;51.744;8.252;2023-12-22T09:16:22;18.30;60.50
45843;DHT22;31563;51.744;8.252;2023-12-22T09:18:50;18.20;60.50
45843;DHT22;31563;51.744;8.252;2023-12-22T09:21:19;18.20;60.60
45843;DHT22;31563;51.744;8.252;2023-12-22T09:23:47;18.20;60.30
45843;DHT22;31563;51.744;8.252;2023-12-22T09:26:16;18.30;60.70
45843;DHT22;31563;51.744;8.252;2023-12-22T09:28:45;18.30;60.60
45843;DHT22;31563;51.744;8.252;2023-12-22T09:31:14;18.00;57.40
45843;DHT22;31563;51.744;8.252;2023-12-22T09:33:43;17.70;54.50
45843;DHT22;31563;51.744;8.252;2023-12-22T09:36:11;17.50;54.90
45843;DHT22;31563;51.744;8.252;2023-12-22T09:38:39;17.40;56.20
45843;DHT22;31563;51.744;8.252;2023-12-22T09:41:08;17.50;55.90
45843;DHT22;31563;51.744;8.252;2023-12-22T09:43:37;17.50;56.60
45843;DHT22;31563;51.744;8.252;2023-12-22T09:46:07;17.60;56.90
45843;DHT22;31563;51.744;8.252;2023-12-22T09:48:36;17.60;57.00
45843;DHT22;31563;51.744;8.252;2023-12-22T09:51:08;17.80;56.80
45843;DHT22;31563;51.744;8.252;2023-12-22T09:53:38;18.10;56.30
45843;DHT22;31563;51.744;8.252;2023-12-22T09:56:07;18.20;56.30
45843;DHT22;31563;51.744;8.252;2023-12-22T09:58:36;18.40;56.50
45843;DHT22;31563;51.744;8.252;2023-12-22T10:01:05;18.60;56.60
45843;DHT22;31563;51.744;8.252;2023-12-22T10:03:33;18.90;57.50
45843;DHT22;31563;51.744;8.252;2023-12-22T10:06:02;19.30;56.40
45843;DHT22;31563;51.744;8.252;2023-12-22T10:08:32;19.70;55.80
45843;DHT22;31563;51.744;8.252;2023-12-22T10:11:01;19.80;55.50
45843;DHT22;31563;51.744;8.252;2023-12-22T10:13:33;19.70;55.70
45843;DHT22;31563;51.744;8.252;2023-12-22T10:16:04;19.50;56.40
45843;DHT22;31563;51.744;8.252;2023-12-22T10:18:33;19.30;57.00
45843;DHT22;31563;51.744;8.252;2023-12-22T10:21:01;19.10;57.60
45843;DHT22;31563;51.744;8.252;2023-12-22T10:23:29;19.00;58.20
45843;DHT22;31563;51.744;8.252;2023-12-22T10:25:58;18.90;58.70
45843;DHT22;31563;51.744;8.252;2023-12-22T10:28:27;18.80;59.10
45843;DHT22;31563;51.744;8.252;2023-12-22T10:30:56;18.70;59.40
45843;DHT22;31563;51.744;8.252;2023-12-22T10:33:30;18.70;59.80
45843;DHT22;31563;51.744;8.252;2023-12-22T10:35:59;18.70;57.20
45843;DHT22;31563;51.744;8.252;2023-12-22T10:38:32;18.50;54.80
45843;DHT22;31563;51.744;8.252;2023-12-22T10:41:02;18.40;55.80
45843;DHT22;31563;51.744;8.252;2023-12-22T10:43:30;18.30;56.00
45843;DHT22;31563;51.744;8.252;2023-12-22T10:45:58;18.30;56.10
45843;DHT22;31563;51.744;8.252;2023-12-22T10:48:26;18.20;55.90
45843;DHT22;31563;51.744;8.252;2023-12-22T10:50:54;18.10;56.30
45843;DHT22;31563;51.744;8.252;2023-12-22T10:53:22;18.00;56.50
45843;DHT22;31563;51.744;8.252;2023-12-22T10:55:51;18.00;57.40
45843;DHT22;31563;51.744;8.252;2023-12-22T10:58:21;18.10;56.80
45843;DHT22;31563;51.744;8.252;2023-12-22T11:00:51;18.10;56.80
45843;DHT22;31563;51.744;8.252;2023-12-22T11:03:23;18.10;56.60
45843;DHT22;31563;51.744;8.252;2023-12-22T11:05:54;18.10;56.80
45843;DHT22;31563;51.744;8.252;2023-12-22T11:08:26;18.00;56.90
45843;DHT22;31563;51.744;8.252;2023-12-22T11:10:58;17.90;57.20
45843;DHT22;31563;51.744;8.252;2023-12-22T11:13:31;18.00;57.30
45843;DHT22;31563;51.744;8.252;2023-12-22T11:16:00;18.00;57.30
45843;DHT22;31563;51.744;8.252;2023-12-22T11:18:29;18.00;57.50
45843;DHT22;31563;51.744;8.252;2023-12-22T11:20:57;18.20;59.60
45843;DHT22;31563;51.744;8.252;2023-12-22T11:23:26;18.50;59.60
45843;DHT22;31563;51.744;8.252;2023-12-22T11:25:55;18.50;59.60
45843;DHT22;31563;51.744;8.252;2023-12-22T11:28:24;18.40;60.20
45843;DHT22;31563;51.744;8.252;2023-12-22T11:30:54;18.20;60.70
45843;DHT22;31563;51.744;8.252;2023-12-22T11:33:25;18.10;61.10
45843;DHT22;31563;51.744;8.252;2023-12-22T11:35:55;18.00;61.30
45843;DHT22;31563;51.744;8.252;2023-12-22T11:38:23;17.90;61.40
45843;DHT22;31563;51.744;8.252;2023-12-22T11:40:52;17.80;61.20
45843;DHT22;31563;51.744;8.252;2023-12-22T11:43:21;17.70;61.10
45843;DHT22;31563;51.744;8.252;2023-12-22T11:45:49;17.70;61.40
45843;DHT22;31563;51.744;8.252;2023-12-22T11:48:18;17.80;61.50
45843;DHT22;31563;51.744;8.252;2023-12-22T11:50:47;17.90;62.30
45843;DHT22;31563;51.744;8.252;2023-12-22T11:53:19;18.00;61.50
45843;DHT22;31563;51.744;8.252;2023-12-22T11:55:57;18.10;61.90
45843;DHT22;31563;51.744;8.252;2023-12-22T11:58:36;18.10;61.60
45843;DHT22;31563;51.744;8.252;2023-12-22T12:01:08;18.10;62.10
45843;DHT22;31563;51.744;8.252;2023-12-22T12:03:41;18.00;62.10
45843;DHT22;31563;51.744;8.252;2023-12-22T12:06:17;18.10;62.20
45843;DHT22;31563;51.744;8.252;2023-12-22T12:08:49;18.10;61.90
45843;DHT22;31563;51.744;8.252;2023-12-22T12:11:18;18.10;62.10
45843;DHT22;31563;51.744;8.252;2023-12-22T12:13:46;18.00;62.20
45843;DHT22;31563;51.744;8.252;2023-12-22T12:16:19;17.90;62.40
45843;DHT22;31563;51.744;8.252;2023-12-22T12:18:49;17.90;62.40
45843;DHT22;31563;51.744;8.252;2023-12-22T12:21:19;18.00;63.80
45843;DHT22;31563;51.744;8.252;2023-12-22T12:23:48;18.20;62.80
45843;DHT22;31563;51.744;8.252;2023-12-22T12:26:17;18.20;63.40
45843;DHT22;31563;51.744;8.252;2023-12-22T12:28:46;18.10;63.20
45843;DHT22;31563;51.744;8.252;2023-12-22T12:31:14;18.10;63.20
45843;DHT22;31563;51.744;8.252;2023-12-22T12:33:42;18.10;63.20
45843;DHT22;31563;51.744;8.252;2023-12-22T12:36:13;18.00;63.30
45843;DHT22;31563;51.744;8.252;2023-12-22T12:38:53;18.00;63.60
45843;DHT22;31563;51.744;8.252;2023-12-22T12:41:29;18.00;63.90
45843;DHT22;31563;51.744;8.252;2023-12-22T12:44:03;18.00;63.80
45843;DHT22;31563;51.744;8.252;2023-12-22T12:46:33;18.00;63.80
45843;DHT22;31563;51.744;8.252;2023-12-22T12:49:04;18.00;63.60
45843;DHT22;31563;51.744;8.252;2023-12-22T12:51:37;18.00;63.60
45843;DHT22;31563;51.744;8.252;2023-12-22T12:54:06;18.00;63.60
45843;DHT22;31563;51.744;8.252;2023-12-22T12:56:40;17.90;63.50
45843;DHT22;31563;51.744;8.252;2023-12-22T12:59:08;17.90;63.40
45843;DHT22;31563;51.744;8.252;2023-12-22T13:01:39;17.90;63.50
45843;DHT22;31563;51.744;8.252;2023-12-22T13:04:07;17.90;63.30
45843;DHT22;31563;51.744;8.252;2023-12-22T13:06:42;17.80;59.50
45843;DHT22;31563;51.744;8.252;2023-12-22T13:09:10;17.80;60.70
45843;DHT22;31563;51.744;8.252;2023-12-22T13:11:40;17.80;60.80
45843;DHT22;31563;51.744;8.252;2023-12-22T13:14:09;17.80;60.80
45843;DHT22;31563;51.744;8.252;2023-12-22T13:16:37;17.80;60.20
45843;DHT22;31563;51.744;8.252;2023-12-22T13:19:06;17.80;60.30
45843;DHT22;31563;51.744;8.252;2023-12-22T13:21:35;17.70;60.40
45843;DHT22;31563;51.744;8.252;2023-12-22T13:24:10;17.70;60.50
45843;DHT22;31563;51.744;8.252;2023-12-22T13:26:40;17.70;60.70
45843;DHT22;31563;51.744;8.252;2023-12-22T13:29:08;17.70;60.50
45843;DHT22;31563;51.744;8.252;2023-12-22T13:31:37;17.70;60.50
45843;DHT22;31563;51.744;8.252;2023-12-22T13:34:08;17.60;60.70
45843;DHT22;31563;51.744;8.252;2023-12-22T13:36:37;17.70;60.80
45843;DHT22;31563;51.744;8.252;2023-12-22T13:39:05;17.70;58.10
45843;DHT22;31563;51.744;8.252;2023-12-22T13:41:36;17.20;56.40
45843;DHT22;31563;51.744;8.252;2023-12-22T13:44:07;17.20;58.60
45843;DHT22;31563;51.744;8.252;2023-12-22T13:46:35;17.20;59.20
45843;DHT22;31563;51.744;8.252;2023-12-22T13:49:04;17.30;59.40
45843;DHT22;31563;51.744;8.252;2023-12-22T13:51:39;17.30;59.30
45843;DHT22;31563;51.744;8.252;2023-12-22T13:54:07;17.30;59.50
45843;DHT22;31563;51.744;8.252;2023-12-22T13:56:37;17.50;63.00
45843;DHT22;31563;51.744;8.252;2023-12-22T13:59:07;17.80;62.80
45843;DHT22;31563;51.744;8.252;2023-12-22T14:01:35;17.70;63.60
45843;DHT22;31563;51.744;8.252;2023-12-22T14:04:03;17.70;64.40
45843;DHT22;31563;51.744;8.252;2023-12-22T14:06:31;17.80;63.70
45843;DHT22;31563;51.744;8.252;2023-12-22T14:08:59;17.80;63.60
45843;DHT22;31563;51.744;8.252;2023-12-22T14:11:27;17.70;63.70
45843;DHT22;31563;51.744;8.252;2023-12-22T14:14:00;17.70;63.80
45843;DHT22;31563;51.744;8.252;2023-12-22T14:16:28;17.60;64.00
45843;DHT22;31563;51.744;8.252;2023-12-22T14:18:56;17.60;64.20
45843;DHT22;31563;51.744;8.252;2023-12-22T14:21:24;17.60;64.20
45843;DHT22;31563;51.744;8.252;2023-12-22T14:23:52;17.60;64.20
45843;DHT22;31563;51.744;8.252;2023-12-22T14:26:19;17.60;64.20
45843;DHT22;31563;51.744;8.252;2023-12-22T14:28:48;17.50;63.80
45843;DHT22;31563;51.744;8.252;2023-12-22T14:31:19;17.40;59.80
45843;DHT22;31563;51.744;8.252;2023-12-22T14:33:47;17.50;65.10
45843;DHT22;31563;51.744;8.252;2023-12-22T14:36:15;17.50;65.00
45843;DHT22;31563;51.744;8.252;2023-12-22T14:38:43;17.50;65.50
45843;DHT22;31563;51.744;8.252;2023-12-22T14:41:11;17.50;65.60
45843;DHT22;31563;51.744;8.252;2023-12-22T14:43:39;17.50;65.40
45843;DHT22;31563;51.744;8.252;2023-12-22T14:46:07;17.50;65.40
45843;DHT22;31563;51.744;8.252;2023-12-22T14:48:35;17.50;65.50
45843;DHT22;31563;51.744;8.252;2023-12-22T14:51:03;17.40;65.50
45843;DHT22;31563;51.744;8.252;2023-12-22T14:53:32;17.50;65.60
45843;DHT22;31563;51.744;8.252;2023-12-22T14:56:01;17.40;65.60
45843;DHT22;31563;51.744;8.252;2023-12-22T14:58:29;17.50;64.40
45843;DHT22;31563;51.744;8.252;2023-12-22T15:01:03;17.20;60.60
45843;DHT22;31563;51.744;8.252;2023-12-22T15:03:35;16.90;58.90
45843;DHT22;31563;51.744;8.252;2023-12-22T15:06:03;16.50;58.90
45843;DHT22;31563;51.744;8.252;2023-12-22T15:08:32;16.30;59.60
45843;DHT22;31563;51.744;8.252;2023-12-22T15:11:04;16.30;59.50
45843;DHT22;31563;51.744;8.252;2023-12-22T15:13:32;16.40;59.60
45843;DHT22;31563;51.744;8.252;2023-12-22T15:16:04;16.60;60.40
45843;DHT22;31563;51.744;8.252;2023-12-22T15:18:32;16.70;59.90
45843;DHT22;31563;51.744;8.252;2023-12-22T15:21:01;16.80;59.80
45843;DHT22;31563;51.744;8.252;2023-12-22T15:23:29;16.90;60.00
45843;DHT22;31563;51.744;8.252;2023-12-22T15:25:57;16.90;60.00
45843;DHT22;31563;51.744;8.252;2023-12-22T15:28:25;16.90;60.00
45843;DHT22;31563;51.744;8.252;2023-12-22T15:30:53;17.00;60.00
45843;DHT22;31563;51.744;8.252;2023-12-22T15:33:21;17.00;59.90
45843;DHT22;31563;51.744;8.252;2023-12-22T15:35:54;17.00;59.90
45843;DHT22;31563;51.744;8.252;2023-12-22T15:38:23;17.00;59.80
45843;DHT22;31563;51.744;8.252;2023-12-22T15:40:50;17.00;59.90